createdAt,value
2018-09-02T00:01:25.528Z,12.90
2018-09-02T00:03:52.163Z,12.90
2018-09-02T00:06:18.794Z,12.90
2018-09-02T00:08:45.407Z,13.00
2018-09-02T00:11:12.043Z,13.00
2018-09-02T00:13:38.960Z,13.00
2018-09-02T00:16:05.630Z,13.10
2018-09-02T00:18:32.267Z,13.10
2018-09-02T00:20:58.911Z,13.10
2018-09-02T00:23:25.583Z,13.20
2018-09-02T00:25:52.215Z,13.30
2018-09-02T00:28:18.830Z,13.30
2018-09-02T00:30:45.463Z,13.30
2018-09-02T00:33:12.169Z,13.40
2018-09-02T00:35:38.775Z,13.40
2018-09-02T00:38:05.387Z,13.50
2018-09-02T00:40:32.095Z,13.50
2018-09-02T00:42:58.707Z,13.50
2018-09-02T00:45:25.655Z,13.50
2018-09-02T00:47:52.359Z,13.50
2018-09-02T00:50:18.992Z,13.60
2018-09-02T00:52:45.607Z,13.60
2018-09-02T00:55:12.240Z,13.60
2018-09-02T00:57:38.843Z,13.70
2018-09-02T01:00:05.811Z,13.70
2018-09-02T01:02:32.414Z,13.70
2018-09-02T01:05:00.702Z,13.70
2018-09-02T01:07:27.675Z,13.70
2018-09-02T01:09:55.683Z,13.70
2018-09-02T01:12:22.371Z,13.70
2018-09-02T01:14:48.979Z,13.70
2018-09-02T01:17:15.616Z,13.70
2018-09-02T01:19:42.231Z,13.70
2018-09-02T01:22:08.866Z,13.60
2018-09-02T01:24:35.479Z,13.60
2018-09-02T01:27:02.115Z,13.50
2018-09-02T01:29:28.736Z,13.40
2018-09-02T01:31:55.380Z,13.40
2018-09-02T01:34:22.032Z,13.20
2018-09-02T01:36:48.676Z,13.10
2018-09-02T01:39:15.283Z,13.10
2018-09-02T01:41:41.911Z,13.10
2018-09-02T01:44:08.517Z,13.00
2018-09-02T01:46:35.147Z,12.90
2018-09-02T01:49:01.755Z,12.90
2018-09-02T01:51:28.392Z,12.90
2018-09-02T01:53:55.008Z,12.90
2018-09-02T01:56:21.651Z,13.00
2018-09-02T01:58:48.259Z,13.00
2018-09-02T02:01:14.895Z,13.00
2018-09-02T02:03:42.091Z,13.00
2018-09-02T02:06:08.732Z,13.10
2018-09-02T02:08:35.391Z,13.10
2018-09-02T02:11:01.999Z,13.00
2018-09-02T02:13:28.863Z,13.10
2018-09-02T02:15:55.462Z,13.10
2018-09-02T02:18:22.104Z,13.20
2018-09-02T02:20:48.716Z,13.20
2018-09-02T02:23:15.352Z,13.20
2018-09-02T02:25:41.964Z,13.20
2018-09-02T02:28:08.999Z,13.20
2018-09-02T02:30:35.655Z,13.20
2018-09-02T02:33:02.495Z,13.20
2018-09-02T02:35:29.130Z,13.20
2018-09-02T02:37:56.556Z,13.20
2018-09-02T02:40:23.171Z,13.20
2018-09-02T02:42:50.279Z,13.20
2018-09-02T02:45:16.890Z,13.20
2018-09-02T02:47:43.532Z,13.20
2018-09-02T02:50:10.152Z,13.20
2018-09-02T02:52:42.682Z,13.30
2018-09-02T02:55:09.487Z,13.30
2018-09-02T02:57:36.139Z,13.30
2018-09-02T03:00:02.779Z,13.30
2018-09-02T03:02:29.416Z,13.30
2018-09-02T03:04:56.029Z,13.30
2018-09-02T03:07:22.663Z,13.30
2018-09-02T03:09:49.271Z,13.30
2018-09-02T03:12:15.929Z,13.30
2018-09-02T03:14:42.534Z,13.30
2018-09-02T03:17:09.171Z,13.30
2018-09-02T03:19:35.802Z,13.30
2018-09-02T03:22:02.465Z,13.30
2018-09-02T03:24:29.079Z,13.30
2018-09-02T03:26:55.724Z,13.30
2018-09-02T03:29:22.331Z,13.30
2018-09-02T03:31:48.939Z,13.40
2018-09-02T03:34:15.614Z,13.40
2018-09-02T03:36:42.215Z,13.40
2018-09-02T03:39:09.369Z,13.40
2018-09-02T03:41:35.994Z,13.40
2018-09-02T03:44:02.647Z,13.40
2018-09-02T03:46:29.411Z,13.40
2018-09-02T03:48:56.063Z,13.40
2018-09-02T03:51:22.671Z,13.40
2018-09-02T03:53:49.310Z,13.50
2018-09-02T03:56:15.919Z,13.50
2018-09-02T03:58:42.618Z,13.50
2018-09-02T04:01:09.227Z,13.50
2018-09-02T04:03:35.863Z,13.50
2018-09-02T04:06:02.475Z,13.50
2018-09-02T04:08:29.119Z,13.50
2018-09-02T04:10:55.723Z,13.50
2018-09-02T04:13:22.363Z,13.50
2018-09-02T04:15:48.975Z,13.50
2018-09-02T04:18:15.615Z,13.50
2018-09-02T04:20:42.588Z,13.50
2018-09-02T04:23:09.267Z,13.50
2018-09-02T04:25:35.888Z,13.50
2018-09-02T04:28:02.515Z,13.50
2018-09-02T04:30:29.424Z,13.50
2018-09-02T04:32:56.424Z,13.50
2018-09-02T04:35:23.419Z,13.50
2018-09-02T04:37:50.063Z,13.50
2018-09-02T04:40:16.675Z,13.50
2018-09-02T04:42:43.367Z,13.50
2018-09-02T04:45:10.443Z,13.50
2018-09-02T04:47:37.019Z,13.60
2018-09-02T04:50:09.927Z,13.60
2018-09-02T04:52:36.862Z,13.60
2018-09-02T04:55:03.500Z,13.60
2018-09-02T04:57:30.103Z,13.60
2018-09-02T04:59:56.735Z,13.60
2018-09-02T05:02:23.342Z,13.60
2018-09-02T05:04:49.976Z,13.60
2018-09-02T05:07:16.586Z,13.70
2018-09-02T05:09:43.227Z,13.70
2018-09-02T05:12:09.838Z,13.70
2018-09-02T05:14:36.475Z,13.70
2018-09-02T05:17:03.331Z,13.80
2018-09-02T05:19:29.967Z,13.70
2018-09-02T05:21:56.599Z,13.70
2018-09-02T05:24:23.222Z,13.80
2018-09-02T05:26:49.835Z,13.80
2018-09-02T05:29:16.751Z,13.80
2018-09-02T05:31:43.354Z,13.80
2018-09-02T05:34:10.024Z,13.80
2018-09-02T05:36:36.644Z,13.80
2018-09-02T05:39:04.908Z,13.90
2018-09-02T05:41:31.524Z,13.90
2018-09-02T05:43:58.224Z,13.90
2018-09-02T05:46:24.788Z,13.90
2018-09-02T05:48:51.424Z,13.90
2018-09-02T05:51:18.029Z,13.90
2018-09-02T05:53:44.673Z,14.00
2018-09-02T05:56:11.302Z,14.00
2018-09-02T05:58:38.227Z,14.00
2018-09-02T06:01:04.841Z,14.10
2018-09-02T06:03:31.448Z,14.10
2018-09-02T06:05:58.243Z,14.20
2018-09-02T06:08:24.855Z,14.20
2018-09-02T06:10:51.519Z,14.30
2018-09-02T06:13:18.127Z,14.40
2018-09-02T06:15:44.768Z,14.50
2018-09-02T06:18:11.399Z,14.50
2018-09-02T06:20:38.043Z,14.60
2018-09-02T06:23:04.658Z,14.70
2018-09-02T06:25:31.287Z,14.80
2018-09-02T06:27:57.895Z,14.80
2018-09-02T06:30:24.542Z,14.90
2018-09-02T06:32:51.190Z,14.90
2018-09-02T06:35:17.860Z,15.00
2018-09-02T06:37:44.472Z,15.00
2018-09-02T06:40:11.115Z,15.20
2018-09-02T06:42:37.963Z,15.20
2018-09-02T06:45:04.719Z,15.30
2018-09-02T06:47:31.331Z,15.30
2018-09-02T06:49:57.974Z,15.40
2018-09-02T06:52:24.591Z,15.40
2018-09-02T06:54:51.222Z,15.40
2018-09-02T06:57:17.840Z,15.60
2018-09-02T06:59:44.473Z,15.70
2018-09-02T07:02:11.084Z,15.90
2018-09-02T07:04:37.714Z,16.10
2018-09-02T07:07:04.336Z,16.20
2018-09-02T07:09:30.995Z,16.30
2018-09-02T07:11:57.611Z,16.30
2018-09-02T07:14:24.266Z,16.30
2018-09-02T07:16:50.918Z,16.40
2018-09-02T07:19:17.532Z,16.40
2018-09-02T07:21:44.173Z,16.60
2018-09-02T07:24:10.792Z,16.80
2018-09-02T07:26:37.672Z,17.00
2018-09-02T07:29:04.288Z,17.10
2018-09-02T07:31:30.966Z,17.10
2018-09-02T07:33:57.551Z,17.10
2018-09-02T07:36:24.219Z,17.20
2018-09-02T07:38:50.848Z,17.20
2018-09-02T07:41:17.488Z,17.30
2018-09-02T07:43:44.254Z,17.20
2018-09-02T07:46:10.755Z,17.30
2018-09-02T07:48:37.376Z,17.30
2018-09-02T07:51:04.362Z,17.30
2018-09-02T07:53:30.967Z,17.30
2018-09-02T07:55:57.603Z,17.30
2018-09-02T07:58:24.220Z,17.30
2018-09-02T08:00:50.860Z,17.20
2018-09-02T08:03:17.471Z,17.20
2018-09-02T08:05:44.111Z,17.30
2018-09-02T08:08:10.715Z,17.30
2018-09-02T08:10:37.347Z,17.30
2018-09-02T08:13:03.967Z,17.40
2018-09-02T08:15:30.607Z,17.30
2018-09-02T08:17:57.237Z,17.20
2018-09-02T08:20:23.899Z,17.20
2018-09-02T08:22:50.528Z,17.20
2018-09-02T08:25:17.134Z,17.20
2018-09-02T08:27:44.043Z,17.10
2018-09-02T08:30:10.651Z,17.00
2018-09-02T08:32:37.283Z,16.90
2018-09-02T08:35:03.923Z,16.80
2018-09-02T08:37:30.573Z,16.70
2018-09-02T08:39:57.188Z,16.60
2018-09-02T08:42:23.818Z,16.50
2018-09-02T08:44:50.431Z,16.40
2018-09-02T08:47:17.066Z,16.30
2018-09-02T08:49:43.667Z,16.30
2018-09-02T08:52:10.439Z,16.20
2018-09-02T08:54:37.147Z,16.10
2018-09-02T08:57:03.824Z,16.20
2018-09-02T08:59:30.443Z,16.20
2018-09-02T09:01:57.080Z,16.20
2018-09-02T09:04:23.696Z,16.20
2018-09-02T09:06:50.332Z,16.10
2018-09-02T09:09:17.087Z,16.00
2018-09-02T09:11:43.596Z,15.90
2018-09-02T09:14:10.228Z,15.90
2018-09-02T09:16:36.906Z,15.90
2018-09-02T09:19:03.767Z,15.90
2018-09-02T09:21:30.444Z,16.00
2018-09-02T09:23:57.361Z,16.00
2018-09-02T09:26:24.003Z,16.10
2018-09-02T09:28:50.603Z,16.10
2018-09-02T09:31:17.275Z,16.10
2018-09-02T09:33:43.880Z,16.10
2018-09-02T09:36:10.518Z,16.10
2018-09-02T09:38:37.156Z,16.10
2018-09-02T09:41:03.809Z,16.00
2018-09-02T09:43:31.582Z,16.00
2018-09-02T09:45:58.217Z,16.00
2018-09-02T09:48:24.979Z,15.90
2018-09-02T09:50:51.582Z,16.00
2018-09-02T09:53:18.228Z,16.00
2018-09-02T09:55:44.915Z,16.10
2018-09-02T09:58:11.730Z,16.10
2018-09-02T10:00:44.287Z,16.10
2018-09-02T10:03:10.927Z,16.10
2018-09-02T10:05:37.539Z,16.10
2018-09-02T10:08:04.637Z,16.10
2018-09-02T10:10:31.254Z,16.10
2018-09-02T10:12:57.896Z,16.10
2018-09-02T10:15:24.513Z,16.10
2018-09-02T10:17:51.390Z,16.00
2018-09-02T10:20:18.002Z,15.90
2018-09-02T10:22:44.639Z,15.80
2018-09-02T10:25:11.251Z,15.80
2018-09-02T10:27:37.890Z,15.70
2018-09-02T10:30:04.667Z,15.60
2018-09-02T10:32:31.610Z,15.60
2018-09-02T10:34:58.242Z,15.60
2018-09-02T10:37:24.883Z,15.50
2018-09-02T10:39:51.492Z,15.40
2018-09-02T10:42:18.220Z,15.30
2018-09-02T10:44:44.830Z,15.20
2018-09-02T10:47:11.480Z,15.00
2018-09-02T10:49:38.146Z,14.90
2018-09-02T10:52:04.755Z,14.80
2018-09-02T10:54:31.568Z,14.80
2018-09-02T10:56:58.186Z,14.80
2018-09-02T10:59:24.827Z,14.80
2018-09-02T11:01:51.460Z,14.80
2018-09-02T11:04:18.095Z,14.80
2018-09-02T11:06:44.703Z,14.80
2018-09-02T11:09:11.633Z,14.90
2018-09-02T11:11:38.263Z,14.90
2018-09-02T11:14:05.345Z,14.90
2018-09-02T11:16:31.959Z,14.90
2018-09-02T11:18:58.590Z,14.90
2018-09-02T11:21:25.214Z,14.90
2018-09-02T11:23:51.851Z,14.80
2018-09-02T11:26:18.459Z,14.70
2018-09-02T11:28:45.091Z,14.70
2018-09-02T11:31:11.695Z,14.70
2018-09-02T11:33:38.327Z,14.70
2018-09-02T11:36:05.559Z,14.70
2018-09-02T11:38:32.195Z,14.60
2018-09-02T11:40:58.803Z,14.60
2018-09-02T11:43:25.444Z,14.60
2018-09-02T11:45:52.058Z,14.60
2018-09-02T11:48:18.707Z,14.60
2018-09-02T11:50:45.319Z,14.60
2018-09-02T11:53:11.955Z,14.60
2018-09-02T11:55:38.568Z,14.60
2018-09-02T11:58:05.257Z,14.50
2018-09-02T12:00:31.893Z,14.50
2018-09-02T12:02:58.528Z,14.60
2018-09-02T12:05:25.206Z,14.60
2018-09-02T12:07:51.820Z,14.70
2018-09-02T12:10:18.487Z,14.90
2018-09-02T12:12:45.231Z,14.90
2018-09-02T12:15:11.911Z,15.00
2018-09-02T12:17:38.539Z,15.00
2018-09-02T12:20:05.179Z,15.10
2018-09-02T12:22:31.784Z,15.10
2018-09-02T12:24:58.429Z,15.20
2018-09-02T12:27:25.043Z,15.30
2018-09-02T12:29:51.684Z,15.40
2018-09-02T12:32:18.298Z,15.40
2018-09-02T12:34:44.959Z,15.30
2018-09-02T12:37:11.566Z,15.30
2018-09-02T12:39:38.202Z,15.20
2018-09-02T12:42:04.865Z,15.30
2018-09-02T12:44:31.468Z,15.20
2018-09-02T12:46:58.077Z,15.20
2018-09-02T12:49:25.035Z,15.20
2018-09-02T12:51:51.663Z,15.10
2018-09-02T12:54:18.295Z,15.20
2018-09-02T12:56:44.904Z,15.20
2018-09-02T12:59:11.548Z,15.20
2018-09-02T13:01:38.155Z,15.10
2018-09-02T13:04:05.007Z,15.10
2018-09-02T13:06:32.475Z,15.20
2018-09-02T13:08:59.111Z,15.30
2018-09-02T13:11:25.718Z,15.30
2018-09-02T13:13:52.351Z,15.30
2018-09-02T13:16:18.963Z,15.40
2018-09-02T13:18:45.607Z,15.60
2018-09-02T13:21:12.463Z,15.70
2018-09-02T13:23:39.679Z,15.90
2018-09-02T13:26:06.464Z,16.10
2018-09-02T13:28:33.078Z,16.30
2018-09-02T13:30:59.707Z,16.50
2018-09-02T13:33:26.316Z,16.60
2018-09-02T13:35:52.971Z,16.50
2018-09-02T13:38:19.582Z,16.40
2018-09-02T13:40:46.219Z,16.40
2018-09-02T13:43:12.866Z,16.30
2018-09-02T13:45:39.482Z,16.20
2018-09-02T13:48:06.095Z,16.10
2018-09-02T13:50:32.730Z,16.00
2018-09-02T13:52:59.343Z,15.90
2018-09-02T13:55:25.983Z,15.90
2018-09-02T13:57:52.586Z,15.80
2018-09-02T14:00:19.211Z,15.90
2018-09-02T14:02:45.867Z,15.90
2018-09-02T14:05:12.728Z,15.80
2018-09-02T14:07:39.365Z,15.70
2018-09-02T14:10:06.171Z,15.70
2018-09-02T14:12:32.799Z,15.70
2018-09-02T14:14:59.457Z,15.80
2018-09-02T14:17:26.067Z,15.70
2018-09-02T14:19:52.805Z,15.70
2018-09-02T14:22:19.331Z,15.70
2018-09-02T14:24:45.987Z,15.70
2018-09-02T14:27:12.600Z,15.70
2018-09-02T14:29:39.263Z,15.80
2018-09-02T14:32:05.863Z,15.70
2018-09-02T14:34:32.527Z,15.70
2018-09-02T14:37:00.045Z,15.70
2018-09-02T14:39:27.283Z,15.80
2018-09-02T14:41:53.912Z,15.70
2018-09-02T14:44:20.520Z,15.80
2018-09-02T14:46:47.155Z,15.90
2018-09-02T14:49:13.772Z,16.00
2018-09-02T14:51:40.399Z,16.00
2018-09-02T14:54:07.047Z,16.10
2018-09-02T14:56:33.694Z,16.30
2018-09-02T14:59:00.607Z,16.60
2018-09-02T15:01:27.260Z,16.70
2018-09-02T15:03:53.875Z,16.80
2018-09-02T15:06:20.528Z,16.80
2018-09-02T15:08:47.141Z,16.90
2018-09-02T15:11:14.132Z,16.90
2018-09-02T15:13:40.813Z,16.90
2018-09-02T15:16:07.459Z,16.90
2018-09-02T15:18:34.120Z,16.80
2018-09-02T15:21:00.812Z,16.70
2018-09-02T15:23:27.427Z,16.60
2018-09-02T15:25:54.064Z,16.60
2018-09-02T15:28:20.679Z,16.50
2018-09-02T15:30:47.320Z,16.40
2018-09-02T15:33:14.324Z,16.30
2018-09-02T15:35:40.992Z,16.30
2018-09-02T15:38:07.590Z,16.30
2018-09-02T15:40:34.219Z,16.20
2018-09-02T15:43:01.100Z,16.30
2018-09-02T15:45:27.736Z,16.20
2018-09-02T15:47:54.347Z,16.20
2018-09-02T15:50:20.956Z,16.20
2018-09-02T15:52:47.602Z,16.10
2018-09-02T15:55:14.235Z,16.10
2018-09-02T15:57:40.887Z,16.10
2018-09-02T16:00:07.488Z,16.10
2018-09-02T16:02:34.883Z,16.10
2018-09-02T16:05:01.492Z,16.10
2018-09-02T16:07:29.639Z,16.10
2018-09-02T16:09:56.459Z,16.10
2018-09-02T16:12:23.095Z,16.10
2018-09-02T16:14:49.699Z,16.10
2018-09-02T16:17:16.339Z,16.10
2018-09-02T16:19:42.952Z,16.00
2018-09-02T16:22:09.604Z,16.00
2018-09-02T16:24:36.211Z,16.00
2018-09-02T16:27:03.136Z,16.00
2018-09-02T16:29:30.008Z,16.00
2018-09-02T16:31:56.643Z,16.00
2018-09-02T16:34:23.279Z,16.00
2018-09-02T16:36:49.915Z,15.90
2018-09-02T16:39:16.524Z,15.90
2018-09-02T16:41:43.163Z,15.90
2018-09-02T16:44:09.771Z,15.90
2018-09-02T16:46:36.414Z,16.00
2018-09-02T16:49:03.040Z,16.00
2018-09-02T16:51:29.691Z,16.00
2018-09-02T16:53:56.299Z,16.00
2018-09-02T16:56:22.935Z,16.00
2018-09-02T16:58:49.552Z,16.00
2018-09-02T17:01:16.159Z,16.00
2018-09-02T17:03:46.139Z,16.00
2018-09-02T17:06:12.818Z,16.00
2018-09-02T17:08:39.406Z,16.00
2018-09-02T17:11:06.034Z,16.00
2018-09-02T17:13:32.687Z,16.00
2018-09-02T17:15:59.299Z,16.10
2018-09-02T17:18:25.938Z,16.00
2018-09-02T17:20:52.555Z,16.00
2018-09-02T17:23:19.584Z,16.10
2018-09-02T17:25:46.384Z,16.00
2018-09-02T17:28:13.327Z,16.10
2018-09-02T17:30:40.091Z,16.00
2018-09-02T17:33:07.808Z,16.00
2018-09-02T17:35:34.479Z,16.00
2018-09-02T17:38:01.114Z,15.90
2018-09-02T17:40:27.727Z,15.90
2018-09-02T17:42:54.395Z,15.80
2018-09-02T17:45:21.199Z,15.80
2018-09-02T17:47:47.837Z,15.80
2018-09-02T17:50:14.446Z,15.80
2018-09-02T17:52:41.083Z,15.80
2018-09-02T17:55:07.985Z,15.80
2018-09-02T17:57:34.648Z,15.80
2018-09-02T18:00:01.840Z,15.80
2018-09-02T18:02:28.549Z,15.80
2018-09-02T18:04:55.139Z,15.80
2018-09-02T18:07:21.803Z,15.80
2018-09-02T18:09:48.415Z,15.80
2018-09-02T18:12:15.388Z,15.80
2018-09-02T18:14:41.995Z,15.80
2018-09-02T18:17:08.598Z,15.80
2018-09-02T18:19:35.499Z,15.70
2018-09-02T18:22:02.108Z,15.70
2018-09-02T18:24:28.750Z,15.70
2018-09-02T18:26:55.363Z,15.70
2018-09-02T18:29:21.995Z,15.70
2018-09-02T18:31:48.608Z,15.70
2018-09-02T18:34:15.238Z,15.80
2018-09-02T18:36:41.879Z,15.80
2018-09-02T18:39:09.067Z,15.80
2018-09-02T18:41:35.655Z,15.80
2018-09-02T18:44:02.287Z,15.90
2018-09-02T18:46:28.915Z,15.90
2018-09-02T18:48:55.551Z,15.90
2018-09-02T18:51:22.164Z,15.90
2018-09-02T18:53:48.803Z,15.90
2018-09-02T18:56:15.438Z,15.90
2018-09-02T18:58:42.091Z,15.90
2018-09-02T19:01:08.695Z,15.90
2018-09-02T19:03:35.355Z,15.90
2018-09-02T19:06:02.285Z,15.90
2018-09-02T19:08:28.915Z,15.90
2018-09-02T19:10:55.603Z,15.90
2018-09-02T19:13:22.240Z,15.90
2018-09-02T19:15:48.868Z,16.00
2018-09-02T19:18:15.498Z,16.00
2018-09-02T19:20:42.109Z,15.90
2018-09-02T19:23:08.798Z,15.90
2018-09-02T19:25:35.434Z,15.90
2018-09-02T19:28:02.048Z,15.80
2018-09-02T19:30:28.731Z,15.70
2018-09-02T19:32:55.343Z,15.70
2018-09-02T19:35:22.003Z,15.70
2018-09-02T19:37:48.615Z,15.70
2018-09-02T19:40:15.647Z,15.70
2018-09-02T19:42:42.255Z,15.70
2018-09-02T19:45:08.883Z,15.80
2018-09-02T19:47:35.501Z,15.70
2018-09-02T19:50:02.148Z,15.80
2018-09-02T19:52:28.760Z,15.80
2018-09-02T19:54:55.432Z,15.80
2018-09-02T19:57:22.028Z,15.80
2018-09-02T19:59:48.668Z,15.80
2018-09-02T20:02:15.815Z,15.80
2018-09-02T20:04:42.458Z,15.90
2018-09-02T20:07:09.067Z,15.90
2018-09-02T20:09:35.699Z,15.80
2018-09-02T20:12:02.303Z,15.80
2018-09-02T20:14:28.930Z,15.80
2018-09-02T20:16:55.567Z,15.90
2018-09-02T20:19:22.223Z,15.80
2018-09-02T20:21:48.891Z,15.80
2018-09-02T20:24:15.553Z,15.80
2018-09-02T20:26:42.184Z,15.80
2018-09-02T20:29:08.807Z,15.80
2018-09-02T20:31:35.417Z,15.80
2018-09-02T20:34:02.056Z,15.80
2018-09-02T20:36:28.724Z,15.80
2018-09-02T20:38:55.335Z,15.80
2018-09-02T20:41:22.075Z,15.80
2018-09-02T20:43:48.679Z,15.80
2018-09-02T20:46:15.323Z,15.80
2018-09-02T20:48:41.935Z,15.80
2018-09-02T20:51:08.653Z,15.80
2018-09-02T20:53:35.351Z,15.90
2018-09-02T20:56:01.982Z,15.90
2018-09-02T20:58:28.704Z,15.90
2018-09-02T21:00:55.339Z,15.90
2018-09-02T21:03:21.967Z,15.90
2018-09-02T21:05:48.624Z,15.80
2018-09-02T21:08:15.264Z,15.70
2018-09-02T21:10:41.874Z,15.70
2018-09-02T21:13:08.483Z,15.60
2018-09-02T21:15:35.179Z,15.40
2018-09-02T21:18:01.810Z,15.40
2018-09-02T21:20:28.451Z,15.40
2018-09-02T21:22:55.062Z,15.50
2018-09-02T21:25:21.699Z,15.50
2018-09-02T21:27:48.331Z,15.60
2018-09-02T21:30:14.975Z,15.60
2018-09-02T21:32:41.898Z,15.60
2018-09-02T21:35:08.564Z,15.70
2018-09-02T21:37:35.259Z,15.70
2018-09-02T21:40:01.892Z,15.70
2018-09-02T21:42:28.494Z,15.70
2018-09-02T21:44:55.130Z,15.80
2018-09-02T21:47:21.755Z,15.90
2018-09-02T21:49:48.379Z,15.90
2018-09-02T21:52:15.051Z,15.90
2018-09-02T21:54:41.658Z,15.90
2018-09-02T21:57:08.286Z,16.00
2018-09-02T21:59:35.107Z,16.00
2018-09-02T22:02:01.759Z,16.00
2018-09-02T22:04:28.362Z,16.00
2018-09-02T22:06:54.999Z,16.00
2018-09-02T22:09:21.606Z,16.00
2018-09-02T22:11:48.243Z,16.00
2018-09-02T22:14:14.858Z,16.00
2018-09-02T22:16:42.123Z,16.00
2018-09-02T22:19:08.732Z,16.00
2018-09-02T22:21:35.367Z,16.00
2018-09-02T22:24:02.223Z,16.10
2018-09-02T22:26:30.106Z,16.00
2018-09-02T22:28:56.739Z,16.00
2018-09-02T22:31:23.377Z,16.00
2018-09-02T22:33:50.008Z,16.00
2018-09-02T22:36:16.682Z,16.00
2018-09-02T22:38:43.307Z,16.00
2018-09-02T22:41:10.004Z,16.00
2018-09-02T22:43:36.759Z,16.10
2018-09-02T22:46:03.409Z,16.10
2018-09-02T22:48:30.044Z,16.10
2018-09-02T22:50:56.655Z,16.10
2018-09-02T22:53:23.282Z,16.10
2018-09-02T22:55:49.920Z,16.10
2018-09-02T22:58:16.527Z,16.10
2018-09-02T23:00:43.135Z,16.20
2018-09-02T23:03:09.779Z,16.20
2018-09-02T23:05:36.387Z,16.20
2018-09-02T23:08:03.028Z,16.20
2018-09-02T23:10:29.635Z,16.20
2018-09-02T23:12:56.291Z,16.20
2018-09-02T23:15:22.903Z,16.20
2018-09-02T23:17:49.538Z,16.20
2018-09-02T23:20:16.410Z,16.10
2018-09-02T23:22:43.043Z,16.10
2018-09-02T23:25:09.675Z,16.10
2018-09-02T23:27:36.322Z,16.10
2018-09-02T23:30:02.938Z,16.10
2018-09-02T23:32:29.567Z,16.20
2018-09-02T23:34:56.227Z,16.20
2018-09-02T23:37:22.872Z,16.20
2018-09-02T23:39:49.475Z,16.20
2018-09-02T23:42:16.319Z,16.20
2018-09-02T23:44:42.932Z,16.20
2018-09-02T23:47:09.567Z,16.20
2018-09-02T23:49:36.184Z,16.20
2018-09-02T23:52:02.832Z,16.20
2018-09-02T23:54:29.446Z,16.30
2018-09-02T23:56:56.082Z,16.30
2018-09-02T23:59:22.699Z,16.30
